createdAt,value
2023-02-18T00:00:32.037Z,979.5100679
2023-02-18T00:01:32.189Z,979.5100679
2023-02-18T00:02:32.134Z,979.5100679
2023-02-18T00:03:32.104Z,979.5100679
2023-02-18T00:04:32.052Z,979.5100679
2023-02-18T00:05:32.051Z,979.5100679
2023-02-18T00:06:32.072Z,979.5100679
2023-02-18T00:07:32.128Z,979.5100679
2023-02-18T00:08:32.121Z,979.408476536
2023-02-18T00:09:32.070Z,979.408476536
2023-02-18T00:10:32.052Z,979.6116592640001
2023-02-18T00:11:32.087Z,979.5100679
2023-02-18T00:12:32.054Z,979.713250628
2023-02-18T00:13:32.088Z,979.713250628
2023-02-18T00:14:32.053Z,979.9164333560001
2023-02-18T00:15:32.162Z,979.5100679
2023-02-18T00:16:32.074Z,979.713250628
2023-02-18T00:17:32.069Z,979.6116592640001
2023-02-18T00:18:32.035Z,979.713250628
2023-02-18T00:19:32.061Z,979.713250628
2023-02-18T00:20:32.048Z,980.0180247200001
2023-02-18T00:21:32.049Z,979.814841992
2023-02-18T00:22:32.071Z,979.814841992
2023-02-18T00:23:32.100Z,979.9164333560001
2023-02-18T00:24:32.072Z,980.0180247200001
2023-02-18T00:25:32.086Z,979.713250628
2023-02-18T00:26:32.050Z,979.713250628
2023-02-18T00:27:32.097Z,979.9164333560001
2023-02-18T00:28:32.116Z,979.6116592640001
2023-02-18T00:29:32.054Z,979.814841992
2023-02-18T00:30:32.060Z,980.0180247200001
2023-02-18T00:31:32.169Z,980.0180247200001
2023-02-18T00:32:32.153Z,979.9164333560001
2023-02-18T00:33:32.065Z,980.119616084
2023-02-18T00:34:32.118Z,980.0180247200001
2023-02-18T00:35:32.086Z,979.9164333560001
2023-02-18T00:36:32.057Z,980.119616084
2023-02-18T00:37:33.865Z,980.119616084
2023-02-18T00:38:32.141Z,980.119616084
2023-02-18T00:39:32.080Z,980.2212074480001
2023-02-18T00:40:32.030Z,980.0180247200001
2023-02-18T00:41:32.088Z,980.119616084
2023-02-18T00:42:32.063Z,980.2212074480001
2023-02-18T00:43:32.090Z,980.0180247200001
2023-02-18T00:44:32.061Z,980.2212074480001
2023-02-18T00:45:32.074Z,980.119616084
2023-02-18T00:46:32.081Z,980.3227988120001
2023-02-18T00:47:32.057Z,980.424390176
2023-02-18T00:48:32.119Z,980.119616084
2023-02-18T00:49:32.087Z,980.119616084
2023-02-18T00:50:32.058Z,980.2212074480001
2023-02-18T00:51:32.049Z,980.2212074480001
2023-02-18T00:52:32.041Z,980.3227988120001
2023-02-18T00:53:32.077Z,980.424390176
2023-02-18T00:54:32.065Z,980.52598154
2023-02-18T00:55:32.197Z,980.52598154
2023-02-18T00:56:32.018Z,980.3227988120001
2023-02-18T00:57:32.082Z,980.424390176
2023-02-18T00:58:32.033Z,980.52598154
2023-02-18T00:59:32.062Z,980.424390176
2023-02-18T01:00:32.089Z,980.424390176
2023-02-18T01:01:32.158Z,980.424390176
2023-02-18T01:02:32.081Z,980.627572904
2023-02-18T01:03:32.069Z,980.52598154
2023-02-18T01:04:32.176Z,980.627572904
2023-02-18T01:05:32.156Z,980.627572904
2023-02-18T01:06:32.038Z,980.627572904
2023-02-18T01:07:32.070Z,980.627572904
2023-02-18T01:08:32.100Z,980.627572904
2023-02-18T01:09:32.074Z,980.424390176
2023-02-18T01:10:32.080Z,980.7291642679999
2023-02-18T01:11:32.050Z,980.627572904
2023-02-18T01:12:32.059Z,980.7291642679999
2023-02-18T01:13:32.101Z,980.52598154
2023-02-18T01:14:32.052Z,980.52598154
2023-02-18T01:15:32.064Z,980.627572904
2023-02-18T01:16:32.070Z,980.7291642679999
2023-02-18T01:17:32.064Z,980.627572904
2023-02-18T01:18:32.062Z,980.7291642679999
2023-02-18T01:19:32.067Z,980.627572904
2023-02-18T01:20:32.115Z,980.7291642679999
2023-02-18T01:21:32.092Z,980.52598154
2023-02-18T01:22:32.068Z,980.932346996
2023-02-18T01:23:32.071Z,980.830755632
2023-02-18T01:24:32.075Z,980.830755632
2023-02-18T01:25:32.090Z,980.830755632
2023-02-18T01:26:32.083Z,980.932346996
2023-02-18T01:27:32.080Z,980.830755632
2023-02-18T01:28:32.129Z,980.830755632
2023-02-18T01:29:32.088Z,980.830755632
2023-02-18T01:30:32.148Z,980.932346996
2023-02-18T01:31:32.154Z,980.830755632
2023-02-18T01:32:32.038Z,980.932346996
2023-02-18T01:33:32.059Z,981.237121088
2023-02-18T01:34:32.052Z,980.932346996
2023-02-18T01:35:32.072Z,981.0339383599999
2023-02-18T01:36:32.058Z,980.932346996
2023-02-18T01:37:32.037Z,981.0339383599999
2023-02-18T01:38:32.066Z,981.3387124519999
2023-02-18T01:39:32.109Z,981.3387124519999
2023-02-18T01:40:32.233Z,981.3387124519999
2023-02-18T01:41:32.257Z,981.237121088
2023-02-18T01:42:32.267Z,981.406440028
2023-02-18T01:43:32.255Z,981.406440028
2023-02-18T01:44:32.217Z,981.3387124519999
2023-02-18T01:45:32.273Z,981.237121088
2023-02-18T01:46:32.257Z,981.237121088
2023-02-18T01:47:32.202Z,981.3387124519999
2023-02-18T01:48:32.265Z,981.508031392
2023-02-18T01:49:32.151Z,981.406440028
2023-02-18T01:50:32.149Z,981.3387124519999
2023-02-18T01:51:32.186Z,981.508031392
2023-02-18T01:52:32.160Z,981.406440028
2023-02-18T01:53:32.205Z,981.7112141199999
2023-02-18T01:54:32.238Z,981.6096227559999
2023-02-18T01:55:32.163Z,981.508031392
2023-02-18T01:56:32.039Z,981.7112141199999
2023-02-18T01:57:32.107Z,981.6096227559999
2023-02-18T01:58:32.066Z,981.812805484
2023-02-18T01:59:32.055Z,981.9143968479999
2023-02-18T02:00:32.151Z,981.3387124519999
2023-02-18T02:01:32.048Z,981.7112141199999
2023-02-18T02:02:32.076Z,981.6096227559999
2023-02-18T02:03:32.041Z,981.508031392
2023-02-18T02:04:32.055Z,981.812805484
2023-02-18T02:05:32.054Z,982.0159882119999
2023-02-18T02:06:32.065Z,981.812805484
2023-02-18T02:07:32.145Z,981.9143968479999
2023-02-18T02:08:32.054Z,982.0159882119999
2023-02-18T02:09:32.023Z,981.7112141199999
2023-02-18T02:10:32.083Z,981.812805484
2023-02-18T02:11:32.035Z,982.0159882119999
2023-02-18T02:12:32.022Z,981.9143968479999
2023-02-18T02:13:32.052Z,981.812805484
2023-02-18T02:14:32.108Z,982.2191709399999
2023-02-18T02:15:32.067Z,982.117579576
2023-02-18T02:16:32.104Z,982.2191709399999
2023-02-18T02:17:32.064Z,982.0159882119999
2023-02-18T02:18:32.093Z,982.117579576
2023-02-18T02:19:32.072Z,982.2191709399999
2023-02-18T02:20:32.108Z,982.117579576
2023-02-18T02:21:32.046Z,982.0159882119999
2023-02-18T02:22:32.063Z,982.0159882119999
2023-02-18T02:23:32.041Z,982.2191709399999
2023-02-18T02:24:32.037Z,982.3207623039999
2023-02-18T02:25:32.057Z,982.3207623039999
2023-02-18T02:26:32.119Z,982.2191709399999
2023-02-18T02:27:32.064Z,982.2191709399999
2023-02-18T02:28:32.062Z,982.2191709399999
2023-02-18T02:29:32.034Z,982.3207623039999
2023-02-18T02:30:32.093Z,982.3207623039999
2023-02-18T02:31:32.108Z,982.3207623039999
2023-02-18T02:32:32.061Z,982.422353668
2023-02-18T02:33:32.038Z,982.2191709399999
2023-02-18T02:34:31.994Z,982.422353668
2023-02-18T02:35:32.026Z,982.2191709399999
2023-02-18T02:36:32.087Z,982.422353668
2023-02-18T02:37:32.198Z,982.6255363959999
2023-02-18T02:38:32.078Z,982.3207623039999
2023-02-18T02:39:32.036Z,982.6255363959999
2023-02-18T02:40:32.070Z,982.3207623039999
2023-02-18T02:41:32.056Z,982.8287191239999
2023-02-18T02:42:32.065Z,982.422353668
2023-02-18T02:43:32.051Z,982.6255363959999
2023-02-18T02:44:32.029Z,982.5239450319999
2023-02-18T02:45:32.118Z,982.5239450319999
2023-02-18T02:46:32.084Z,982.6255363959999
2023-02-18T02:47:32.043Z,982.6255363959999
2023-02-18T02:48:32.024Z,982.6255363959999
2023-02-18T02:49:32.035Z,982.5239450319999
2023-02-18T02:50:32.098Z,982.5239450319999
2023-02-18T02:51:32.041Z,982.422353668
2023-02-18T02:52:32.111Z,982.5239450319999
2023-02-18T02:53:32.058Z,982.422353668
2023-02-18T02:54:32.161Z,982.9303104879999
2023-02-18T02:55:32.297Z,982.72712776
2023-02-18T02:56:32.051Z,982.8287191239999
2023-02-18T02:57:32.061Z,982.72712776
2023-02-18T02:58:32.094Z,982.72712776
2023-02-18T02:59:32.054Z,982.8287191239999
2023-02-18T03:00:32.061Z,982.6255363959999
2023-02-18T03:01:32.033Z,982.8287191239999
2023-02-18T03:02:32.084Z,982.5239450319999
2023-02-18T03:03:32.131Z,982.72712776
2023-02-18T03:04:32.047Z,982.72712776
2023-02-18T03:05:32.035Z,982.8287191239999
2023-02-18T03:06:32.062Z,982.72712776
2023-02-18T03:07:34.074Z,982.9303104879999
2023-02-18T03:08:32.032Z,982.9303104879999
2023-02-18T03:09:32.062Z,982.6255363959999
2023-02-18T03:10:32.187Z,982.72712776
2023-02-18T03:11:32.143Z,982.9303104879999
2023-02-18T03:12:32.045Z,983.031901852
2023-02-18T03:13:32.027Z,983.031901852
2023-02-18T03:14:32.185Z,982.8287191239999
2023-02-18T03:15:32.063Z,983.031901852
2023-02-18T03:16:32.252Z,982.8287191239999
2023-02-18T03:17:32.227Z,982.9303104879999
2023-02-18T03:18:32.240Z,982.9303104879999
2023-02-18T03:19:32.155Z,982.72712776
2023-02-18T03:20:32.029Z,982.9303104879999
2023-02-18T03:21:32.165Z,983.031901852
2023-02-18T03:22:32.154Z,982.8287191239999
2023-02-18T03:23:32.058Z,983.031901852
2023-02-18T03:24:32.061Z,983.133493216
2023-02-18T03:25:32.314Z,982.9303104879999
2023-02-18T03:26:32.043Z,983.133493216
2023-02-18T03:27:32.198Z,983.133493216
2023-02-18T03:28:32.064Z,983.133493216
2023-02-18T03:29:32.117Z,983.133493216
2023-02-18T03:30:32.179Z,983.2350845799999
2023-02-18T03:31:32.300Z,983.031901852
2023-02-18T03:32:32.175Z,983.2350845799999
2023-02-18T03:33:32.062Z,983.2350845799999
2023-02-18T03:34:32.177Z,983.133493216
2023-02-18T03:35:32.083Z,983.031901852
2023-02-18T03:36:32.162Z,983.2350845799999
2023-02-18T03:37:32.133Z,983.2350845799999
2023-02-18T03:38:32.050Z,983.438267308
2023-02-18T03:39:32.185Z,983.2350845799999
2023-02-18T03:40:32.073Z,983.2350845799999
2023-02-18T03:41:32.181Z,983.133493216
2023-02-18T03:42:32.161Z,983.438267308
2023-02-18T03:43:32.092Z,983.438267308
2023-02-18T03:44:32.100Z,983.336675944
2023-02-18T03:45:32.122Z,983.336675944
2023-02-18T03:46:32.140Z,983.438267308
2023-02-18T03:47:32.172Z,983.438267308
2023-02-18T03:48:32.124Z,983.505994884
2023-02-18T03:49:32.216Z,983.709177612
2023-02-18T03:50:32.075Z,983.438267308
2023-02-18T03:51:32.185Z,983.505994884
2023-02-18T03:52:32.061Z,983.607586248
2023-02-18T03:53:32.027Z,983.709177612
2023-02-18T03:54:32.060Z,983.709177612
2023-02-18T03:55:32.043Z,983.438267308
2023-02-18T03:56:32.041Z,984.013951704
2023-02-18T03:57:32.140Z,983.709177612
2023-02-18T03:58:32.090Z,983.607586248
2023-02-18T03:59:32.047Z,984.013951704
2023-02-18T04:00:32.015Z,983.91236034
2023-02-18T04:01:32.111Z,983.810768976
2023-02-18T04:02:32.050Z,983.810768976
2023-02-18T04:03:32.034Z,983.810768976
2023-02-18T04:04:32.064Z,983.709177612
2023-02-18T04:05:32.038Z,983.810768976
2023-02-18T04:06:32.090Z,983.810768976
2023-02-18T04:07:32.031Z,983.91236034
2023-02-18T04:08:32.026Z,983.810768976
2023-02-18T04:09:32.032Z,983.709177612
2023-02-18T04:10:32.069Z,984.013951704
2023-02-18T04:11:32.046Z,983.91236034
2023-02-18T04:12:32.041Z,984.013951704
2023-02-18T04:13:32.067Z,983.91236034
2023-02-18T04:14:32.047Z,983.810768976
2023-02-18T04:15:32.226Z,983.91236034
2023-02-18T04:16:32.143Z,984.115543068
2023-02-18T04:17:32.066Z,984.115543068
2023-02-18T04:18:32.324Z,984.217134432
2023-02-18T04:19:32.039Z,984.115543068
2023-02-18T04:20:32.157Z,984.217134432
2023-02-18T04:21:32.030Z,983.91236034
2023-02-18T04:22:32.061Z,984.013951704
2023-02-18T04:23:32.037Z,984.318725796
2023-02-18T04:24:32.043Z,984.115543068
2023-02-18T04:25:32.012Z,984.115543068
2023-02-18T04:26:32.039Z,984.217134432
2023-02-18T04:27:32.035Z,984.318725796
2023-02-18T04:28:32.221Z,984.318725796
2023-02-18T04:29:32.024Z,984.5219085240001
2023-02-18T04:30:32.180Z,984.42031716
2023-02-18T04:31:32.143Z,984.42031716
2023-02-18T04:32:32.036Z,984.42031716
2023-02-18T04:33:32.021Z,984.42031716
2023-02-18T04:34:31.989Z,984.318725796
2023-02-18T04:35:32.021Z,984.42031716
2023-02-18T04:36:32.150Z,984.42031716
2023-02-18T04:37:32.032Z,984.318725796
2023-02-18T04:38:32.113Z,984.5219085240001
2023-02-18T04:39:32.029Z,984.42031716
2023-02-18T04:40:32.062Z,984.42031716
2023-02-18T04:41:32.039Z,984.42031716
2023-02-18T04:42:32.023Z,984.5219085240001
2023-02-18T04:43:32.025Z,984.42031716
2023-02-18T04:44:32.019Z,984.8266826160001
2023-02-18T04:45:32.032Z,984.8266826160001
2023-02-18T04:46:32.091Z,984.623499888
2023-02-18T04:47:32.030Z,984.42031716
2023-02-18T04:48:32.046Z,984.9282739800001
2023-02-18T04:49:32.021Z,984.623499888
2023-02-18T04:50:32.040Z,984.8266826160001
2023-02-18T04:51:32.086Z,984.42031716
2023-02-18T04:52:32.063Z,984.8266826160001
2023-02-18T04:53:32.025Z,984.9282739800001
2023-02-18T04:54:32.258Z,984.8266826160001
2023-02-18T04:55:32.032Z,985.1314567080001
2023-02-18T04:56:32.100Z,984.9282739800001
2023-02-18T04:57:32.025Z,985.1314567080001
2023-02-18T04:58:32.082Z,985.2330480720001
2023-02-18T04:59:32.045Z,985.1314567080001
2023-02-18T05:00:32.060Z,985.029865344
2023-02-18T05:01:32.068Z,985.334639436
2023-02-18T05:02:32.054Z,985.029865344
2023-02-18T05:03:32.094Z,985.2330480720001
2023-02-18T05:04:32.081Z,985.1314567080001
2023-02-18T05:05:32.021Z,985.029865344
2023-02-18T05:06:32.022Z,985.2330480720001
2023-02-18T05:07:32.028Z,985.029865344
2023-02-18T05:08:32.026Z,985.1314567080001
2023-02-18T05:09:32.117Z,985.1314567080001
2023-02-18T05:10:32.042Z,985.2330480720001
2023-02-18T05:11:32.052Z,985.4362308000001
2023-02-18T05:12:32.027Z,985.4362308000001
2023-02-18T05:13:32.075Z,985.2330480720001
2023-02-18T05:14:32.065Z,985.4362308000001
2023-02-18T05:15:32.066Z,985.4362308000001
2023-02-18T05:16:32.120Z,985.639413528
2023-02-18T05:17:32.028Z,985.5378221640001
2023-02-18T05:18:32.152Z,985.639413528
2023-02-18T05:19:32.030Z,985.334639436
2023-02-18T05:20:32.028Z,985.4362308000001
2023-02-18T05:21:32.021Z,985.5378221640001
2023-02-18T05:22:32.082Z,985.5378221640001
2023-02-18T05:23:32.043Z,985.4362308000001
2023-02-18T05:24:32.117Z,985.5378221640001
2023-02-18T05:25:32.053Z,985.639413528
2023-02-18T05:26:32.065Z,985.4362308000001
2023-02-18T05:27:32.050Z,985.8087324679999
2023-02-18T05:28:32.055Z,985.707141104
2023-02-18T05:29:32.029Z,985.910323832
2023-02-18T05:30:32.090Z,985.8087324679999
2023-02-18T05:31:32.108Z,985.707141104
2023-02-18T05:32:32.041Z,985.639413528
2023-02-18T05:33:32.025Z,985.5378221640001
2023-02-18T05:34:32.047Z,985.707141104
2023-02-18T05:35:32.024Z,985.8087324679999
2023-02-18T05:36:32.051Z,985.707141104
2023-02-18T05:37:32.047Z,985.910323832
2023-02-18T05:38:32.025Z,985.8087324679999
2023-02-18T05:39:32.011Z,985.910323832
2023-02-18T05:40:32.014Z,985.910323832
2023-02-18T05:41:32.027Z,986.011915196
2023-02-18T05:42:32.033Z,985.910323832
2023-02-18T05:43:32.030Z,985.707141104
2023-02-18T05:44:32.049Z,985.707141104
2023-02-18T05:45:32.023Z,986.011915196
2023-02-18T05:46:32.067Z,986.011915196
2023-02-18T05:47:32.029Z,986.215097924
2023-02-18T05:48:32.057Z,985.910323832
2023-02-18T05:49:32.059Z,985.910323832
2023-02-18T05:50:31.991Z,986.011915196
2023-02-18T05:51:32.024Z,986.011915196
2023-02-18T05:52:32.017Z,986.011915196
2023-02-18T05:53:32.034Z,986.1135065599999
2023-02-18T05:54:32.006Z,986.1135065599999
2023-02-18T05:55:32.058Z,986.1135065599999
2023-02-18T05:56:32.056Z,986.215097924
2023-02-18T05:57:32.086Z,986.215097924
2023-02-18T05:58:32.108Z,986.215097924
2023-02-18T05:59:32.006Z,986.215097924
2023-02-18T06:00:32.062Z,986.4182806520001
2023-02-18T06:01:32.045Z,986.519872016
2023-02-18T06:02:32.125Z,986.4182806520001
2023-02-18T06:03:32.048Z,986.215097924
2023-02-18T06:04:32.166Z,986.4182806520001
2023-02-18T06:05:32.124Z,986.4182806520001
2023-02-18T06:06:32.037Z,986.62146338
2023-02-18T06:07:32.085Z,986.519872016
2023-02-18T06:08:32.140Z,986.62146338
2023-02-18T06:09:32.014Z,986.4182806520001
2023-02-18T06:10:32.042Z,986.62146338
2023-02-18T06:11:32.024Z,986.62146338
2023-02-18T06:12:32.037Z,986.62146338
2023-02-18T06:13:32.056Z,986.8246461079999
2023-02-18T06:14:32.052Z,986.62146338
2023-02-18T06:15:32.024Z,986.519872016
2023-02-18T06:16:32.093Z,986.62146338
2023-02-18T06:17:32.052Z,986.62146338
2023-02-18T06:18:32.100Z,986.7230547440001
2023-02-18T06:19:32.062Z,986.8246461079999
2023-02-18T06:20:32.058Z,986.7230547440001
2023-02-18T06:21:32.034Z,986.8246461079999
2023-02-18T06:22:31.996Z,986.7230547440001
2023-02-18T06:23:32.008Z,986.8246461079999
2023-02-18T06:24:32.096Z,986.9262374719999
2023-02-18T06:25:32.032Z,986.7230547440001
2023-02-18T06:26:32.013Z,987.027828836
2023-02-18T06:27:32.030Z,987.027828836
2023-02-18T06:28:32.076Z,986.9262374719999
2023-02-18T06:29:32.022Z,986.9262374719999
2023-02-18T06:30:32.108Z,987.1294201999999
2023-02-18T06:31:32.073Z,987.027828836
2023-02-18T06:32:32.041Z,987.027828836
2023-02-18T06:33:32.010Z,987.027828836
2023-02-18T06:34:32.035Z,986.9262374719999
2023-02-18T06:35:32.032Z,987.2310115639999
2023-02-18T06:36:32.054Z,987.2310115639999
2023-02-18T06:37:32.006Z,987.027828836
2023-02-18T06:38:32.011Z,987.027828836
2023-02-18T06:39:32.016Z,987.2310115639999
2023-02-18T06:40:32.047Z,987.027828836
2023-02-18T06:41:32.054Z,987.1294201999999
2023-02-18T06:42:32.038Z,987.332602928
2023-02-18T06:43:32.020Z,987.332602928
2023-02-18T06:44:32.021Z,987.2310115639999
2023-02-18T06:45:32.091Z,987.2310115639999
2023-02-18T06:46:32.177Z,987.2310115639999
2023-02-18T06:47:32.044Z,987.332602928
2023-02-18T06:48:32.078Z,987.4341942919999
2023-02-18T06:49:32.035Z,987.5357856559999
2023-02-18T06:50:32.030Z,987.4341942919999
2023-02-18T06:51:32.023Z,987.5357856559999
2023-02-18T06:52:32.037Z,987.5357856559999
2023-02-18T06:53:32.018Z,987.5357856559999
2023-02-18T06:54:32.011Z,987.63737702
2023-02-18T06:55:32.023Z,987.63737702
2023-02-18T06:56:32.135Z,987.5357856559999
2023-02-18T06:57:32.015Z,987.5357856559999
2023-02-18T06:58:32.106Z,987.63737702
2023-02-18T06:59:32.054Z,987.5357856559999
2023-02-18T07:00:32.229Z,987.7389683839999
2023-02-18T07:01:32.027Z,987.7389683839999
2023-02-18T07:02:32.032Z,987.63737702
2023-02-18T07:03:32.092Z,987.63737702
2023-02-18T07:04:32.052Z,987.7389683839999
2023-02-18T07:05:32.043Z,987.63737702
2023-02-18T07:06:32.039Z,987.63737702
2023-02-18T07:07:32.033Z,987.7389683839999
2023-02-18T07:08:32.022Z,987.63737702
2023-02-18T07:09:32.054Z,987.63737702
2023-02-18T07:10:31.997Z,987.7389683839999
2023-02-18T07:11:31.996Z,987.7389683839999
2023-02-18T07:12:32.043Z,987.8066959600001
2023-02-18T07:13:32.064Z,987.7389683839999
2023-02-18T07:14:32.122Z,987.7389683839999
2023-02-18T07:15:32.087Z,987.63737702
2023-02-18T07:16:32.051Z,987.8066959600001
2023-02-18T07:17:32.037Z,987.7389683839999
2023-02-18T07:18:31.996Z,987.8066959600001
2023-02-18T07:19:31.996Z,987.908287324
2023-02-18T07:20:32.024Z,987.908287324
2023-02-18T07:21:32.042Z,987.7389683839999
2023-02-18T07:22:32.019Z,987.908287324
2023-02-18T07:23:32.002Z,987.63737702
2023-02-18T07:24:32.005Z,987.7389683839999
2023-02-18T07:25:32.088Z,987.908287324
2023-02-18T07:26:32.014Z,988.111470052
2023-02-18T07:27:32.045Z,988.111470052
2023-02-18T07:28:32.005Z,988.3146527799998
2023-02-18T07:29:32.079Z,988.213061416
2023-02-18T07:30:32.018Z,988.213061416
2023-02-18T07:31:32.084Z,988.0098786879998
2023-02-18T07:32:32.070Z,987.908287324
2023-02-18T07:33:32.065Z,987.908287324
2023-02-18T07:34:32.029Z,988.213061416
2023-02-18T07:35:32.023Z,988.111470052
2023-02-18T07:36:31.996Z,988.213061416
2023-02-18T07:37:32.022Z,988.111470052
2023-02-18T07:38:32.035Z,988.0098786879998
2023-02-18T07:39:32.009Z,988.0098786879998
2023-02-18T07:40:32.116Z,988.111470052
2023-02-18T07:41:32.020Z,988.213061416
2023-02-18T07:42:32.051Z,988.3146527799998
2023-02-18T07:43:32.033Z,988.416244144
2023-02-18T07:44:32.031Z,988.213061416
2023-02-18T07:45:32.024Z,988.416244144
2023-02-18T07:46:32.059Z,988.3146527799998
2023-02-18T07:47:32.034Z,988.416244144
2023-02-18T07:48:32.052Z,988.213061416
2023-02-18T07:49:31.993Z,988.3146527799998
2023-02-18T07:50:32.004Z,988.213061416
2023-02-18T07:51:32.046Z,988.3146527799998
2023-02-18T07:52:31.978Z,988.517835508
2023-02-18T07:53:31.986Z,988.3146527799998
2023-02-18T07:54:32.211Z,988.416244144
2023-02-18T07:55:32.002Z,988.517835508
2023-02-18T07:56:32.008Z,988.6194268719998
2023-02-18T07:57:32.039Z,988.6194268719998
2023-02-18T07:58:32.032Z,988.6194268719998
2023-02-18T07:59:31.985Z,988.517835508
2023-02-18T08:00:32.081Z,988.517835508
2023-02-18T08:01:32.044Z,988.0098786879998
2023-02-18T08:02:32.044Z,987.7389683839999
2023-02-18T08:03:32.008Z,988.0098786879998
2023-02-18T08:04:32.052Z,987.7389683839999
2023-02-18T08:05:32.008Z,987.908287324
2023-02-18T08:06:32.038Z,987.908287324
2023-02-18T08:07:32.007Z,987.908287324
2023-02-18T08:08:32.101Z,988.0098786879998
2023-02-18T08:09:32.005Z,987.8066959600001
2023-02-18T08:10:32.093Z,988.0098786879998
2023-02-18T08:11:32.027Z,988.8226096
2023-02-18T08:12:31.989Z,988.8226096
2023-02-18T08:13:31.996Z,988.9242009639999
2023-02-18T08:14:32.041Z,988.8226096
2023-02-18T08:15:32.026Z,988.8226096
2023-02-18T08:16:32.037Z,989.025792328
2023-02-18T08:17:32.041Z,988.721018236
2023-02-18T08:18:32.059Z,988.8226096
2023-02-18T08:19:32.013Z,988.9242009639999
2023-02-18T08:20:32.001Z,988.9242009639999
2023-02-18T08:21:32.005Z,989.127383692
2023-02-18T08:22:32.025Z,989.025792328
2023-02-18T08:23:31.999Z,988.8226096
2023-02-18T08:24:32.012Z,988.9242009639999
2023-02-18T08:25:32.018Z,988.9242009639999
2023-02-18T08:26:32.017Z,989.025792328
2023-02-18T08:27:32.020Z,989.127383692
2023-02-18T08:28:32.020Z,989.2289750559999
2023-02-18T08:29:32.060Z,989.025792328
2023-02-18T08:30:32.184Z,989.2289750559999
2023-02-18T08:31:32.189Z,989.127383692
2023-02-18T08:32:32.019Z,989.025792328
2023-02-18T08:33:31.992Z,989.127383692
2023-02-18T08:34:32.018Z,988.9242009639999
2023-02-18T08:35:32.018Z,989.025792328
2023-02-18T08:36:32.074Z,989.127383692
2023-02-18T08:37:52.463Z,989.025792328
2023-02-18T08:38:32.103Z,989.2289750559999
2023-02-18T08:39:32.050Z,989.2289750559999
2023-02-18T08:40:32.026Z,989.33056642
2023-02-18T08:41:32.028Z,989.127383692
2023-02-18T08:42:32.044Z,989.127383692
2023-02-18T08:43:32.008Z,989.025792328
2023-02-18T08:44:32.006Z,989.127383692
2023-02-18T08:45:32.331Z,989.2289750559999
2023-02-18T08:46:35.870Z,989.33056642
2023-02-18T08:48:18.201Z,989.127383692
2023-02-18T08:48:32.159Z,989.2289750559999
2023-02-18T08:49:31.990Z,989.432157784
2023-02-18T08:50:32.040Z,989.33056642
2023-02-18T08:51:32.076Z,989.33056642
2023-02-18T08:52:32.006Z,989.432157784
2023-02-18T08:53:32.037Z,989.5337491480001
2023-02-18T08:54:32.042Z,989.432157784
2023-02-18T08:55:32.034Z,989.5337491480001
2023-02-18T08:56:31.993Z,989.5337491480001
2023-02-18T08:57:31.990Z,989.33056642
2023-02-18T08:58:32.035Z,989.5337491480001
2023-02-18T08:59:32.050Z,989.432157784
2023-02-18T09:00:32.026Z,989.736931876
2023-02-18T09:01:32.150Z,989.5337491480001
2023-02-18T09:02:32.069Z,989.906250816
2023-02-18T09:03:32.004Z,989.635340512
2023-02-18T09:04:32.057Z,989.8385232400001
2023-02-18T09:05:32.046Z,989.8385232400001
2023-02-18T09:06:32.024Z,989.8385232400001
2023-02-18T09:07:32.006Z,989.635340512
2023-02-18T09:08:32.046Z,989.906250816
2023-02-18T09:09:32.004Z,989.906250816
2023-02-18T09:10:32.036Z,989.736931876
2023-02-18T09:11:32.012Z,989.906250816
2023-02-18T09:12:32.065Z,989.8385232400001
2023-02-18T09:13:31.992Z,989.8385232400001
2023-02-18T09:14:32.052Z,989.906250816
2023-02-18T09:15:32.082Z,989.8385232400001
2023-02-18T09:16:32.032Z,990.1094335439999
2023-02-18T09:17:32.069Z,989.736931876
2023-02-18T09:18:32.024Z,989.8385232400001
2023-02-18T09:19:31.985Z,989.906250816
2023-02-18T09:20:32.014Z,990.00784218
2023-02-18T09:21:31.981Z,990.1094335439999
2023-02-18T09:22:32.027Z,989.906250816
2023-02-18T09:23:31.985Z,990.00784218
2023-02-18T09:24:32.003Z,990.00784218
2023-02-18T09:25:32.032Z,990.211024908
2023-02-18T09:26:32.028Z,990.312616272
2023-02-18T09:27:31.997Z,990.1094335439999
2023-02-18T09:28:32.022Z,990.00784218
2023-02-18T09:29:31.988Z,990.1094335439999
2023-02-18T09:30:32.084Z,990.312616272
2023-02-18T09:31:32.100Z,990.1094335439999
2023-02-18T09:32:35.029Z,990.312616272
2023-02-18T09:33:32.018Z,990.312616272
2023-02-18T09:34:32.004Z,990.312616272
2023-02-18T09:35:31.982Z,990.1094335439999
2023-02-18T09:36:32.058Z,990.312616272
2023-02-18T09:37:32.017Z,990.4142076359999
2023-02-18T09:38:31.997Z,990.4142076359999
2023-02-18T09:39:32.072Z,990.312616272
2023-02-18T09:40:32.009Z,990.4142076359999
2023-02-18T09:41:31.988Z,990.617390364
2023-02-18T09:42:31.989Z,990.515799
2023-02-18T09:43:31.996Z,990.211024908
2023-02-18T09:44:32.020Z,990.211024908
2023-02-18T09:45:31.999Z,990.4142076359999
2023-02-18T09:46:32.044Z,990.312616272
2023-02-18T09:47:32.000Z,990.312616272
2023-02-18T09:48:32.035Z,990.312616272
2023-02-18T09:49:32.015Z,990.4142076359999
2023-02-18T09:50:32.016Z,990.617390364